sensor_id;sensor_type;location;lat;lon;timestamp;P1;durP1;ratioP1;P2;durP2;ratioP2
53503;SDS011;39387;50.998;22.340;2022-12-07T00:00:55;26.45;;;11.57;;
53503;SDS011;39387;50.998;22.340;2022-12-07T00:03:23;27.35;;;12.88;;
53503;SDS011;39387;50.998;22.340;2022-12-07T00:05:50;33.72;;;11.27;;
53503;SDS011;39387;50.998;22.340;2022-12-07T00:08:18;25.52;;;10.75;;
53503;SDS011;39387;50.998;22.340;2022-12-07T00:10:45;25.95;;;10.23;;
53503;SDS011;39387;50.998;22.340;2022-12-07T00:13:13;22.75;;;9.30;;
53503;SDS011;39387;50.998;22.340;2022-12-07T00:15:42;24.75;;;9.98;;
53503;SDS011;39387;50.998;22.340;2022-12-07T00:18:10;23.33;;;10.10;;
53503;SDS011;39387;50.998;22.340;2022-12-07T00:20:37;24.25;;;10.02;;
53503;SDS011;39387;50.998;22.340;2022-12-07T00:23:05;24.63;;;10.05;;
53503;SDS011;39387;50.998;22.340;2022-12-07T00:25:32;23.00;;;10.27;;
53503;SDS011;39387;50.998;22.340;2022-12-07T00:28:00;27.88;;;11.40;;
53503;SDS011;39387;50.998;22.340;2022-12-07T00:30:28;26.80;;;9.50;;
53503;SDS011;39387;50.998;22.340;2022-12-07T00:32:57;26.35;;;10.48;;
53503;SDS011;39387;50.998;22.340;2022-12-07T00:37:50;33.35;;;11.70;;
53503;SDS011;39387;50.998;22.340;2022-12-07T00:40:18;28.63;;;10.57;;
53503;SDS011;39387;50.998;22.340;2022-12-07T00:42:45;23.73;;;10.70;;
53503;SDS011;39387;50.998;22.340;2022-12-07T00:45:12;26.98;;;11.75;;
53503;SDS011;39387;50.998;22.340;2022-12-07T00:47:40;22.10;;;9.65;;
53503;SDS011;39387;50.998;22.340;2022-12-07T00:50:09;26.83;;;11.00;;
53503;SDS011;39387;50.998;22.340;2022-12-07T00:52:37;24.00;;;10.82;;
53503;SDS011;39387;50.998;22.340;2022-12-07T00:55:05;22.95;;;10.85;;
53503;SDS011;39387;50.998;22.340;2022-12-07T00:57:36;25.48;;;9.88;;
53503;SDS011;39387;50.998;22.340;2022-12-07T01:00:04;22.50;;;9.65;;
53503;SDS011;39387;50.998;22.340;2022-12-07T01:02:32;24.40;;;10.27;;
53503;SDS011;39387;50.998;22.340;2022-12-07T01:05:00;21.23;;;9.68;;
53503;SDS011;39387;50.998;22.340;2022-12-07T01:07:28;23.58;;;10.18;;
53503;SDS011;39387;50.998;22.340;2022-12-07T01:09:56;21.55;;;9.63;;
53503;SDS011;39387;50.998;22.340;2022-12-07T01:12:23;21.10;;;9.23;;
53503;SDS011;39387;50.998;22.340;2022-12-07T01:14:51;20.20;;;9.05;;
53503;SDS011;39387;50.998;22.340;2022-12-07T01:17:18;24.00;;;10.63;;
53503;SDS011;39387;50.998;22.340;2022-12-07T01:19:46;18.85;;;9.25;;
53503;SDS011;39387;50.998;22.340;2022-12-07T01:22:13;22.55;;;9.75;;
53503;SDS011;39387;50.998;22.340;2022-12-07T01:24:42;24.50;;;9.55;;
53503;SDS011;39387;50.998;22.340;2022-12-07T01:27:12;20.10;;;9.30;;
53503;SDS011;39387;50.998;22.340;2022-12-07T01:29:40;17.98;;;9.02;;
53503;SDS011;39387;50.998;22.340;2022-12-07T01:32:07;23.90;;;9.30;;
53503;SDS011;39387;50.998;22.340;2022-12-07T01:34:35;19.60;;;9.10;;
53503;SDS011;39387;50.998;22.340;2022-12-07T01:37:02;19.80;;;8.88;;
53503;SDS011;39387;50.998;22.340;2022-12-07T01:39:30;18.58;;;7.90;;
53503;SDS011;39387;50.998;22.340;2022-12-07T01:41:59;15.48;;;8.50;;
53503;SDS011;39387;50.998;22.340;2022-12-07T01:44:27;19.30;;;7.95;;
53503;SDS011;39387;50.998;22.340;2022-12-07T01:46:58;15.23;;;7.65;;
53503;SDS011;39387;50.998;22.340;2022-12-07T01:49:28;14.10;;;7.10;;
53503;SDS011;39387;50.998;22.340;2022-12-07T01:51:59;15.50;;;7.20;;
53503;SDS011;39387;50.998;22.340;2022-12-07T01:54:29;13.27;;;7.03;;
53503;SDS011;39387;50.998;22.340;2022-12-07T01:56:56;13.18;;;5.68;;
53503;SDS011;39387;50.998;22.340;2022-12-07T01:59:26;11.80;;;6.03;;
53503;SDS011;39387;50.998;22.340;2022-12-07T02:01:53;12.27;;;6.30;;
53503;SDS011;39387;50.998;22.340;2022-12-07T02:04:22;12.45;;;6.60;;
53503;SDS011;39387;50.998;22.340;2022-12-07T02:06:49;11.82;;;6.82;;
53503;SDS011;39387;50.998;22.340;2022-12-07T02:09:17;12.13;;;6.43;;
53503;SDS011;39387;50.998;22.340;2022-12-07T02:11:45;14.13;;;6.53;;
53503;SDS011;39387;50.998;22.340;2022-12-07T02:14:14;14.88;;;6.95;;
53503;SDS011;39387;50.998;22.340;2022-12-07T02:16:47;11.98;;;6.70;;
53503;SDS011;39387;50.998;22.340;2022-12-07T02:19:35;12.48;;;6.00;;
53503;SDS011;39387;50.998;22.340;2022-12-07T02:22:16;14.20;;;6.82;;
53503;SDS011;39387;50.998;22.340;2022-12-07T02:24:52;14.93;;;7.00;;
53503;SDS011;39387;50.998;22.340;2022-12-07T02:30:15;16.67;;;7.65;;
53503;SDS011;39387;50.998;22.340;2022-12-07T02:32:46;15.70;;;6.78;;
53503;SDS011;39387;50.998;22.340;2022-12-07T02:35:19;14.50;;;6.75;;
53503;SDS011;39387;50.998;22.340;2022-12-07T02:37:51;12.95;;;6.50;;
53503;SDS011;39387;50.998;22.340;2022-12-07T02:40:26;15.68;;;7.43;;
53503;SDS011;39387;50.998;22.340;2022-12-07T02:42:58;13.02;;;6.38;;
53503;SDS011;39387;50.998;22.340;2022-12-07T02:45:30;13.38;;;5.75;;
53503;SDS011;39387;50.998;22.340;2022-12-07T02:47:58;13.57;;;5.97;;
53503;SDS011;39387;50.998;22.340;2022-12-07T02:50:26;10.48;;;5.22;;
53503;SDS011;39387;50.998;22.340;2022-12-07T02:52:54;9.43;;;5.22;;
53503;SDS011;39387;50.998;22.340;2022-12-07T02:55:25;8.18;;;4.75;;
53503;SDS011;39387;50.998;22.340;2022-12-07T02:58:05;10.50;;;5.00;;
53503;SDS011;39387;50.998;22.340;2022-12-07T03:00:44;9.35;;;4.85;;
53503;SDS011;39387;50.998;22.340;2022-12-07T03:03:15;8.20;;;4.45;;
53503;SDS011;39387;50.998;22.340;2022-12-07T03:05:54;8.07;;;3.90;;
53503;SDS011;39387;50.998;22.340;2022-12-07T03:08:28;6.35;;;3.75;;
53503;SDS011;39387;50.998;22.340;2022-12-07T03:11:00;7.40;;;4.22;;
53503;SDS011;39387;50.998;22.340;2022-12-07T03:13:31;6.82;;;3.78;;
53503;SDS011;39387;50.998;22.340;2022-12-07T03:18:33;7.95;;;4.10;;
53503;SDS011;39387;50.998;22.340;2022-12-07T03:21:04;9.27;;;4.57;;
53503;SDS011;39387;50.998;22.340;2022-12-07T03:23:35;6.03;;;3.47;;
53503;SDS011;39387;50.998;22.340;2022-12-07T03:26:05;5.40;;;3.10;;
53503;SDS011;39387;50.998;22.340;2022-12-07T03:28:36;6.88;;;3.22;;
53503;SDS011;39387;50.998;22.340;2022-12-07T03:31:10;6.03;;;3.60;;
53503;SDS011;39387;50.998;22.340;2022-12-07T03:33:40;6.30;;;3.17;;
53503;SDS011;39387;50.998;22.340;2022-12-07T03:36:14;7.30;;;3.65;;
53503;SDS011;39387;50.998;22.340;2022-12-07T03:38:47;5.20;;;3.15;;
53503;SDS011;39387;50.998;22.340;2022-12-07T03:41:18;5.90;;;3.00;;
53503;SDS011;39387;50.998;22.340;2022-12-07T03:43:48;6.30;;;3.33;;
53503;SDS011;39387;50.998;22.340;2022-12-07T03:46:19;4.68;;;3.03;;
53503;SDS011;39387;50.998;22.340;2022-12-07T03:48:51;3.00;;;2.30;;
53503;SDS011;39387;50.998;22.340;2022-12-07T03:51:22;5.80;;;3.13;;
53503;SDS011;39387;50.998;22.340;2022-12-07T03:53:54;4.35;;;2.70;;
53503;SDS011;39387;50.998;22.340;2022-12-07T03:56:26;4.90;;;2.78;;
53503;SDS011;39387;50.998;22.340;2022-12-07T03:58:54;5.35;;;3.20;;
53503;SDS011;39387;50.998;22.340;2022-12-07T04:01:24;3.35;;;2.25;;
53503;SDS011;39387;50.998;22.340;2022-12-07T04:03:51;4.25;;;2.95;;
53503;SDS011;39387;50.998;22.340;2022-12-07T04:06:19;5.55;;;3.38;;
53503;SDS011;39387;50.998;22.340;2022-12-07T04:08:47;4.22;;;2.90;;
53503;SDS011;39387;50.998;22.340;2022-12-07T04:11:14;5.93;;;3.20;;
53503;SDS011;39387;50.998;22.340;2022-12-07T04:13:42;5.18;;;3.47;;
53503;SDS011;39387;50.998;22.340;2022-12-07T04:16:28;6.13;;;3.00;;
53503;SDS011;39387;50.998;22.340;2022-12-07T04:18:55;5.88;;;3.75;;
53503;SDS011;39387;50.998;22.340;2022-12-07T04:21:23;5.85;;;3.63;;
53503;SDS011;39387;50.998;22.340;2022-12-07T04:23:50;7.18;;;3.72;;
53503;SDS011;39387;50.998;22.340;2022-12-07T04:26:18;5.50;;;3.28;;
53503;SDS011;39387;50.998;22.340;2022-12-07T04:28:45;4.90;;;3.10;;
53503;SDS011;39387;50.998;22.340;2022-12-07T04:31:12;5.30;;;3.55;;
53503;SDS011;39387;50.998;22.340;2022-12-07T04:33:41;6.85;;;3.25;;
53503;SDS011;39387;50.998;22.340;2022-12-07T04:36:09;5.45;;;3.30;;
53503;SDS011;39387;50.998;22.340;2022-12-07T04:38:36;6.20;;;3.25;;
53503;SDS011;39387;50.998;22.340;2022-12-07T04:41:04;7.15;;;3.80;;
53503;SDS011;39387;50.998;22.340;2022-12-07T04:43:34;3.75;;;2.50;;
53503;SDS011;39387;50.998;22.340;2022-12-07T04:46:02;6.45;;;3.55;;
53503;SDS011;39387;50.998;22.340;2022-12-07T04:48:29;4.20;;;2.92;;
53503;SDS011;39387;50.998;22.340;2022-12-07T04:50:59;4.28;;;3.30;;
53503;SDS011;39387;50.998;22.340;2022-12-07T04:53:26;4.15;;;2.85;;
53503;SDS011;39387;50.998;22.340;2022-12-07T04:55:54;5.88;;;3.20;;
53503;SDS011;39387;50.998;22.340;2022-12-07T04:58:21;4.30;;;2.88;;
53503;SDS011;39387;50.998;22.340;2022-12-07T05:00:48;6.10;;;2.97;;
53503;SDS011;39387;50.998;22.340;2022-12-07T05:03:16;7.00;;;3.08;;
53503;SDS011;39387;50.998;22.340;2022-12-07T05:05:43;5.07;;;2.90;;
53503;SDS011;39387;50.998;22.340;2022-12-07T05:08:12;4.93;;;3.60;;
53503;SDS011;39387;50.998;22.340;2022-12-07T05:10:40;4.80;;;3.10;;
53503;SDS011;39387;50.998;22.340;2022-12-07T05:13:07;5.50;;;3.42;;
53503;SDS011;39387;50.998;22.340;2022-12-07T05:15:35;4.82;;;2.70;;
53503;SDS011;39387;50.998;22.340;2022-12-07T05:18:02;5.60;;;2.72;;
53503;SDS011;39387;50.998;22.340;2022-12-07T05:20:30;4.45;;;3.08;;
53503;SDS011;39387;50.998;22.340;2022-12-07T05:22:57;5.78;;;3.40;;
53503;SDS011;39387;50.998;22.340;2022-12-07T05:25:26;5.10;;;2.67;;
53503;SDS011;39387;50.998;22.340;2022-12-07T05:27:54;5.63;;;3.15;;
53503;SDS011;39387;50.998;22.340;2022-12-07T05:30:22;5.53;;;3.30;;
53503;SDS011;39387;50.998;22.340;2022-12-07T05:32:50;5.75;;;3.10;;
53503;SDS011;39387;50.998;22.340;2022-12-07T05:35:18;4.63;;;2.85;;
53503;SDS011;39387;50.998;22.340;2022-12-07T05:37:45;5.13;;;3.25;;
53503;SDS011;39387;50.998;22.340;2022-12-07T05:40:13;4.35;;;2.63;;
53503;SDS011;39387;50.998;22.340;2022-12-07T05:42:42;6.30;;;3.22;;
53503;SDS011;39387;50.998;22.340;2022-12-07T05:45:10;4.43;;;3.10;;
53503;SDS011;39387;50.998;22.340;2022-12-07T05:47:38;6.05;;;3.10;;
53503;SDS011;39387;50.998;22.340;2022-12-07T05:50:06;4.90;;;2.97;;
53503;SDS011;39387;50.998;22.340;2022-12-07T05:52:34;7.35;;;4.15;;
53503;SDS011;39387;50.998;22.340;2022-12-07T05:55:01;5.32;;;2.67;;
53503;SDS011;39387;50.998;22.340;2022-12-07T05:57:29;7.30;;;3.70;;
53503;SDS011;39387;50.998;22.340;2022-12-07T05:59:58;6.47;;;3.35;;
53503;SDS011;39387;50.998;22.340;2022-12-07T06:02:24;4.80;;;3.00;;
53503;SDS011;39387;50.998;22.340;2022-12-07T06:04:52;5.93;;;3.47;;
53503;SDS011;39387;50.998;22.340;2022-12-07T06:07:19;6.45;;;2.90;;
53503;SDS011;39387;50.998;22.340;2022-12-07T06:09:47;8.90;;;4.13;;
53503;SDS011;39387;50.998;22.340;2022-12-07T06:12:14;10.85;;;4.38;;
53503;SDS011;39387;50.998;22.340;2022-12-07T06:15:01;5.30;;;3.53;;
53503;SDS011;39387;50.998;22.340;2022-12-07T06:17:28;8.50;;;3.45;;
53503;SDS011;39387;50.998;22.340;2022-12-07T06:19:56;8.65;;;4.13;;
53503;SDS011;39387;50.998;22.340;2022-12-07T06:22:24;6.50;;;3.88;;
53503;SDS011;39387;50.998;22.340;2022-12-07T06:24:51;9.73;;;4.38;;
53503;SDS011;39387;50.998;22.340;2022-12-07T06:27:19;7.50;;;4.10;;
53503;SDS011;39387;50.998;22.340;2022-12-07T06:29:46;7.80;;;4.50;;
53503;SDS011;39387;50.998;22.340;2022-12-07T06:32:15;8.80;;;4.38;;
53503;SDS011;39387;50.998;22.340;2022-12-07T06:34:46;7.38;;;4.07;;
53503;SDS011;39387;50.998;22.340;2022-12-07T06:37:13;7.30;;;4.15;;
53503;SDS011;39387;50.998;22.340;2022-12-07T06:39:41;13.35;;;5.07;;
53503;SDS011;39387;50.998;22.340;2022-12-07T06:42:08;10.95;;;4.15;;
53503;SDS011;39387;50.998;22.340;2022-12-07T06:44:36;9.52;;;4.75;;
53503;SDS011;39387;50.998;22.340;2022-12-07T06:47:03;6.75;;;3.95;;
53503;SDS011;39387;50.998;22.340;2022-12-07T06:49:33;7.15;;;4.28;;
53503;SDS011;39387;50.998;22.340;2022-12-07T06:52:00;11.40;;;4.40;;
53503;SDS011;39387;50.998;22.340;2022-12-07T06:54:28;7.88;;;4.63;;
53503;SDS011;39387;50.998;22.340;2022-12-07T06:56:55;13.27;;;5.22;;
53503;SDS011;39387;50.998;22.340;2022-12-07T06:59:23;9.90;;;4.47;;
53503;SDS011;39387;50.998;22.340;2022-12-07T07:01:51;12.60;;;5.20;;
53503;SDS011;39387;50.998;22.340;2022-12-07T07:04:19;9.50;;;4.53;;
53503;SDS011;39387;50.998;22.340;2022-12-07T07:06:48;9.98;;;4.78;;
53503;SDS011;39387;50.998;22.340;2022-12-07T07:09:16;12.43;;;5.18;;
53503;SDS011;39387;50.998;22.340;2022-12-07T07:11:43;10.13;;;4.95;;
53503;SDS011;39387;50.998;22.340;2022-12-07T07:14:11;9.25;;;4.18;;
53503;SDS011;39387;50.998;22.340;2022-12-07T07:16:44;7.38;;;4.72;;
53503;SDS011;39387;50.998;22.340;2022-12-07T07:19:12;13.27;;;5.10;;
53503;SDS011;39387;50.998;22.340;2022-12-07T07:21:39;10.63;;;5.05;;
53503;SDS011;39387;50.998;22.340;2022-12-07T07:24:08;9.20;;;4.45;;
53503;SDS011;39387;50.998;22.340;2022-12-07T07:26:36;8.15;;;4.47;;
53503;SDS011;39387;50.998;22.340;2022-12-07T07:29:03;10.07;;;4.63;;
53503;SDS011;39387;50.998;22.340;2022-12-07T07:31:31;9.43;;;4.32;;
53503;SDS011;39387;50.998;22.340;2022-12-07T07:34:01;11.07;;;4.70;;
53503;SDS011;39387;50.998;22.340;2022-12-07T07:36:28;11.15;;;5.03;;
53503;SDS011;39387;50.998;22.340;2022-12-07T07:38:56;9.30;;;4.75;;
53503;SDS011;39387;50.998;22.340;2022-12-07T07:41:24;12.13;;;5.38;;
53503;SDS011;39387;50.998;22.340;2022-12-07T07:43:52;11.20;;;5.05;;
53503;SDS011;39387;50.998;22.340;2022-12-07T07:46:19;7.45;;;4.45;;
53503;SDS011;39387;50.998;22.340;2022-12-07T07:48:47;10.30;;;5.60;;
53503;SDS011;39387;50.998;22.340;2022-12-07T07:51:14;9.55;;;5.30;;
53503;SDS011;39387;50.998;22.340;2022-12-07T07:53:41;9.65;;;4.80;;
53503;SDS011;39387;50.998;22.340;2022-12-07T07:56:09;10.77;;;5.80;;
53503;SDS011;39387;50.998;22.340;2022-12-07T07:58:38;9.65;;;4.80;;
53503;SDS011;39387;50.998;22.340;2022-12-07T08:01:06;12.57;;;6.40;;
53503;SDS011;39387;50.998;22.340;2022-12-07T08:03:34;10.57;;;6.05;;
53503;SDS011;39387;50.998;22.340;2022-12-07T08:06:02;11.07;;;5.80;;
53503;SDS011;39387;50.998;22.340;2022-12-07T08:08:30;11.80;;;5.63;;
53503;SDS011;39387;50.998;22.340;2022-12-07T08:10:57;9.65;;;5.22;;
53503;SDS011;39387;50.998;22.340;2022-12-07T08:13:26;9.10;;;5.07;;
53503;SDS011;39387;50.998;22.340;2022-12-07T08:15:55;11.90;;;5.97;;
53503;SDS011;39387;50.998;22.340;2022-12-07T08:18:23;8.45;;;4.90;;
53503;SDS011;39387;50.998;22.340;2022-12-07T08:20:50;9.90;;;5.15;;
53503;SDS011;39387;50.998;22.340;2022-12-07T08:23:18;10.40;;;6.05;;
53503;SDS011;39387;50.998;22.340;2022-12-07T08:25:45;10.32;;;5.18;;
53503;SDS011;39387;50.998;22.340;2022-12-07T08:28:12;8.60;;;5.28;;
53503;SDS011;39387;50.998;22.340;2022-12-07T08:30:40;8.13;;;4.90;;
53503;SDS011;39387;50.998;22.340;2022-12-07T08:33:09;10.82;;;5.40;;
53503;SDS011;39387;50.998;22.340;2022-12-07T08:35:36;8.88;;;5.43;;
53503;SDS011;39387;50.998;22.340;2022-12-07T08:38:04;10.88;;;5.47;;
53503;SDS011;39387;50.998;22.340;2022-12-07T08:40:31;9.63;;;5.32;;
53503;SDS011;39387;50.998;22.340;2022-12-07T08:42:59;8.35;;;4.97;;
53503;SDS011;39387;50.998;22.340;2022-12-07T08:45:26;8.73;;;5.35;;
53503;SDS011;39387;50.998;22.340;2022-12-07T08:47:54;10.77;;;5.97;;
53503;SDS011;39387;50.998;22.340;2022-12-07T08:50:25;8.60;;;5.18;;
53503;SDS011;39387;50.998;22.340;2022-12-07T08:52:54;9.32;;;4.93;;
53503;SDS011;39387;50.998;22.340;2022-12-07T08:55:23;10.07;;;4.78;;
53503;SDS011;39387;50.998;22.340;2022-12-07T08:57:51;10.63;;;5.38;;
53503;SDS011;39387;50.998;22.340;2022-12-07T09:00:18;9.98;;;5.40;;
53503;SDS011;39387;50.998;22.340;2022-12-07T09:02:46;9.73;;;5.38;;
53503;SDS011;39387;50.998;22.340;2022-12-07T09:05:14;10.50;;;5.72;;
53503;SDS011;39387;50.998;22.340;2022-12-07T09:07:43;10.65;;;5.50;;
53503;SDS011;39387;50.998;22.340;2022-12-07T09:10:12;8.02;;;4.85;;
53503;SDS011;39387;50.998;22.340;2022-12-07T09:12:40;9.35;;;5.60;;
53503;SDS011;39387;50.998;22.340;2022-12-07T09:15:07;9.15;;;5.03;;
53503;SDS011;39387;50.998;22.340;2022-12-07T09:17:35;8.90;;;5.47;;
53503;SDS011;39387;50.998;22.340;2022-12-07T09:20:03;11.30;;;5.38;;
53503;SDS011;39387;50.998;22.340;2022-12-07T09:22:31;7.97;;;4.70;;
53503;SDS011;39387;50.998;22.340;2022-12-07T09:25:01;8.82;;;4.80;;
53503;SDS011;39387;50.998;22.340;2022-12-07T09:27:28;7.10;;;4.97;;
53503;SDS011;39387;50.998;22.340;2022-12-07T09:29:56;9.20;;;5.07;;
53503;SDS011;39387;50.998;22.340;2022-12-07T09:32:23;8.45;;;5.05;;
53503;SDS011;39387;50.998;22.340;2022-12-07T09:34:50;9.68;;;5.68;;
53503;SDS011;39387;50.998;22.340;2022-12-07T09:37:18;8.20;;;4.50;;
53503;SDS011;39387;50.998;22.340;2022-12-07T09:39:45;9.55;;;5.20;;
53503;SDS011;39387;50.998;22.340;2022-12-07T09:42:18;6.70;;;4.88;;
53503;SDS011;39387;50.998;22.340;2022-12-07T09:44:53;7.82;;;4.97;;
53503;SDS011;39387;50.998;22.340;2022-12-07T09:47:20;7.38;;;4.70;;
53503;SDS011;39387;50.998;22.340;2022-12-07T09:49:47;6.90;;;4.32;;
53503;SDS011;39387;50.998;22.340;2022-12-07T09:52:19;7.03;;;4.05;;
53503;SDS011;39387;50.998;22.340;2022-12-07T09:54:48;8.90;;;4.15;;
53503;SDS011;39387;50.998;22.340;2022-12-07T09:57:18;8.10;;;4.40;;
53503;SDS011;39387;50.998;22.340;2022-12-07T09:59:47;7.40;;;3.63;;
53503;SDS011;39387;50.998;22.340;2022-12-07T10:02:23;6.55;;;3.85;;
53503;SDS011;39387;50.998;22.340;2022-12-07T10:04:52;9.75;;;4.68;;
53503;SDS011;39387;50.998;22.340;2022-12-07T10:07:20;6.72;;;4.10;;
53503;SDS011;39387;50.998;22.340;2022-12-07T10:09:47;7.95;;;4.25;;
53503;SDS011;39387;50.998;22.340;2022-12-07T10:12:14;7.28;;;4.82;;
53503;SDS011;39387;50.998;22.340;2022-12-07T10:14:54;7.82;;;3.97;;
53503;SDS011;39387;50.998;22.340;2022-12-07T10:17:29;7.18;;;4.35;;
53503;SDS011;39387;50.998;22.340;2022-12-07T10:22:56;6.18;;;4.05;;
53503;SDS011;39387;50.998;22.340;2022-12-07T10:25:26;6.72;;;4.22;;
53503;SDS011;39387;50.998;22.340;2022-12-07T10:28:02;7.88;;;4.60;;
53503;SDS011;39387;50.998;22.340;2022-12-07T10:30:47;8.25;;;4.28;;
53503;SDS011;39387;50.998;22.340;2022-12-07T10:33:28;4.95;;;3.13;;
53503;SDS011;39387;50.998;22.340;2022-12-07T10:35:56;8.63;;;4.07;;
53503;SDS011;39387;50.998;22.340;2022-12-07T10:38:24;6.50;;;3.97;;
53503;SDS011;39387;50.998;22.340;2022-12-07T10:41:02;5.28;;;3.63;;
53503;SDS011;39387;50.998;22.340;2022-12-07T10:43:30;6.28;;;4.13;;
53503;SDS011;39387;50.998;22.340;2022-12-07T10:46:06;5.88;;;3.70;;
53503;SDS011;39387;50.998;22.340;2022-12-07T10:49:03;9.20;;;4.63;;
53503;SDS011;39387;50.998;22.340;2022-12-07T10:51:40;7.32;;;4.68;;
53503;SDS011;39387;50.998;22.340;2022-12-07T10:54:12;6.28;;;3.80;;
53503;SDS011;39387;50.998;22.340;2022-12-07T10:56:55;6.13;;;3.75;;
53503;SDS011;39387;50.998;22.340;2022-12-07T11:02:25;8.60;;;4.43;;
53503;SDS011;39387;50.998;22.340;2022-12-07T11:05:06;7.90;;;4.50;;
53503;SDS011;39387;50.998;22.340;2022-12-07T11:07:43;7.90;;;4.75;;
53503;SDS011;39387;50.998;22.340;2022-12-07T11:10:17;8.38;;;4.88;;
53503;SDS011;39387;50.998;22.340;2022-12-07T11:12:52;6.05;;;4.65;;
53503;SDS011;39387;50.998;22.340;2022-12-07T11:15:49;7.75;;;4.18;;
53503;SDS011;39387;50.998;22.340;2022-12-07T11:18:26;7.75;;;4.32;;
53503;SDS011;39387;50.998;22.340;2022-12-07T11:20:57;6.95;;;3.92;;
53503;SDS011;39387;50.998;22.340;2022-12-07T11:23:36;7.93;;;4.55;;
53503;SDS011;39387;50.998;22.340;2022-12-07T11:26:13;7.95;;;4.38;;
53503;SDS011;39387;50.998;22.340;2022-12-07T11:28:50;6.28;;;4.40;;
53503;SDS011;39387;50.998;22.340;2022-12-07T11:31:28;7.85;;;4.13;;
53503;SDS011;39387;50.998;22.340;2022-12-07T11:34:00;8.43;;;4.65;;
53503;SDS011;39387;50.998;22.340;2022-12-07T11:36:36;8.63;;;4.15;;
53503;SDS011;39387;50.998;22.340;2022-12-07T11:39:08;7.55;;;4.38;;
53503;SDS011;39387;50.998;22.340;2022-12-07T11:41:43;9.27;;;4.30;;
53503;SDS011;39387;50.998;22.340;2022-12-07T11:44:15;7.32;;;4.30;;
53503;SDS011;39387;50.998;22.340;2022-12-07T11:46:53;7.05;;;4.10;;
53503;SDS011;39387;50.998;22.340;2022-12-07T11:49:26;7.05;;;3.72;;
53503;SDS011;39387;50.998;22.340;2022-12-07T11:51:59;7.55;;;4.60;;
53503;SDS011;39387;50.998;22.340;2022-12-07T11:54:29;8.35;;;4.25;;
53503;SDS011;39387;50.998;22.340;2022-12-07T11:57:00;9.32;;;4.63;;
53503;SDS011;39387;50.998;22.340;2022-12-07T11:59:31;7.85;;;4.32;;
53503;SDS011;39387;50.998;22.340;2022-12-07T12:02:07;8.02;;;4.07;;
53503;SDS011;39387;50.998;22.340;2022-12-07T12:04:45;6.07;;;3.80;;
53503;SDS011;39387;50.998;22.340;2022-12-07T12:07:20;7.05;;;4.20;;
53503;SDS011;39387;50.998;22.340;2022-12-07T12:09:49;5.57;;;3.63;;
53503;SDS011;39387;50.998;22.340;2022-12-07T12:15:16;6.03;;;3.50;;
53503;SDS011;39387;50.998;22.340;2022-12-07T12:18:00;9.35;;;5.00;;
53503;SDS011;39387;50.998;22.340;2022-12-07T12:20:37;7.03;;;4.72;;
53503;SDS011;39387;50.998;22.340;2022-12-07T12:23:10;6.90;;;3.80;;
53503;SDS011;39387;50.998;22.340;2022-12-07T12:25:39;6.68;;;4.20;;
53503;SDS011;39387;50.998;22.340;2022-12-07T12:28:18;6.60;;;3.85;;
53503;SDS011;39387;50.998;22.340;2022-12-07T12:30:49;7.10;;;3.97;;
53503;SDS011;39387;50.998;22.340;2022-12-07T12:33:32;6.57;;;4.00;;
53503;SDS011;39387;50.998;22.340;2022-12-07T12:36:18;7.82;;;4.38;;
53503;SDS011;39387;50.998;22.340;2022-12-07T12:38:49;6.30;;;3.80;;
53503;SDS011;39387;50.998;22.340;2022-12-07T12:44:41;6.70;;;4.60;;
53503;SDS011;39387;50.998;22.340;2022-12-07T12:53:05;5.57;;;3.78;;
53503;SDS011;39387;50.998;22.340;2022-12-07T12:58:43;6.05;;;3.35;;
53503;SDS011;39387;50.998;22.340;2022-12-07T13:01:36;6.70;;;4.25;;
53503;SDS011;39387;50.998;22.340;2022-12-07T13:04:27;5.47;;;3.70;;
53503;SDS011;39387;50.998;22.340;2022-12-07T13:07:02;5.32;;;3.45;;
53503;SDS011;39387;50.998;22.340;2022-12-07T13:09:31;6.32;;;3.88;;
53503;SDS011;39387;50.998;22.340;2022-12-07T13:12:04;7.68;;;4.95;;
53503;SDS011;39387;50.998;22.340;2022-12-07T13:20:42;6.18;;;3.50;;
53503;SDS011;39387;50.998;22.340;2022-12-07T13:23:12;7.13;;;3.83;;
53503;SDS011;39387;50.998;22.340;2022-12-07T13:25:44;6.35;;;3.78;;
53503;SDS011;39387;50.998;22.340;2022-12-07T13:28:14;9.95;;;4.78;;
53503;SDS011;39387;50.998;22.340;2022-12-07T13:30:45;8.00;;;3.58;;
53503;SDS011;39387;50.998;22.340;2022-12-07T13:33:17;7.07;;;4.82;;
53503;SDS011;39387;50.998;22.340;2022-12-07T13:35:45;6.70;;;3.83;;
53503;SDS011;39387;50.998;22.340;2022-12-07T13:38:20;8.40;;;3.88;;
53503;SDS011;39387;50.998;22.340;2022-12-07T13:41:12;8.52;;;5.05;;
53503;SDS011;39387;50.998;22.340;2022-12-07T13:43:44;6.63;;;3.97;;
53503;SDS011;39387;50.998;22.340;2022-12-07T13:46:13;7.43;;;4.03;;
53503;SDS011;39387;50.998;22.340;2022-12-07T13:48:44;7.10;;;4.25;;
53503;SDS011;39387;50.998;22.340;2022-12-07T13:51:20;8.57;;;4.72;;
53503;SDS011;39387;50.998;22.340;2022-12-07T13:53:50;7.10;;;4.40;;
53503;SDS011;39387;50.998;22.340;2022-12-07T13:56:22;10.10;;;4.28;;
53503;SDS011;39387;50.998;22.340;2022-12-07T13:58:52;7.22;;;3.92;;
53503;SDS011;39387;50.998;22.340;2022-12-07T14:01:19;8.25;;;4.55;;
53503;SDS011;39387;50.998;22.340;2022-12-07T14:03:47;6.15;;;3.63;;
53503;SDS011;39387;50.998;22.340;2022-12-07T14:06:16;6.07;;;3.92;;
53503;SDS011;39387;50.998;22.340;2022-12-07T14:08:50;8.35;;;4.18;;
53503;SDS011;39387;50.998;22.340;2022-12-07T14:11:37;8.05;;;3.83;;
53503;SDS011;39387;50.998;22.340;2022-12-07T14:14:04;8.90;;;4.32;;
53503;SDS011;39387;50.998;22.340;2022-12-07T14:16:33;9.35;;;4.80;;
53503;SDS011;39387;50.998;22.340;2022-12-07T14:19:02;6.15;;;4.05;;
53503;SDS011;39387;50.998;22.340;2022-12-07T14:21:31;7.63;;;4.38;;
53503;SDS011;39387;50.998;22.340;2022-12-07T14:24:08;7.63;;;4.32;;
53503;SDS011;39387;50.998;22.340;2022-12-07T14:26:39;7.07;;;3.92;;
53503;SDS011;39387;50.998;22.340;2022-12-07T14:29:19;8.15;;;4.22;;
53503;SDS011;39387;50.998;22.340;2022-12-07T14:31:56;8.45;;;4.28;;
53503;SDS011;39387;50.998;22.340;2022-12-07T14:34:24;10.10;;;4.60;;
53503;SDS011;39387;50.998;22.340;2022-12-07T14:36:52;6.65;;;4.18;;
53503;SDS011;39387;50.998;22.340;2022-12-07T14:39:19;10.40;;;5.78;;
53503;SDS011;39387;50.998;22.340;2022-12-07T14:41:48;9.15;;;6.57;;
53503;SDS011;39387;50.998;22.340;2022-12-07T14:44:19;8.70;;;4.88;;
53503;SDS011;39387;50.998;22.340;2022-12-07T14:46:47;8.65;;;5.03;;
53503;SDS011;39387;50.998;22.340;2022-12-07T14:49:15;10.60;;;4.45;;
53503;SDS011;39387;50.998;22.340;2022-12-07T14:51:43;7.60;;;4.53;;
53503;SDS011;39387;50.998;22.340;2022-12-07T14:54:13;11.45;;;4.63;;
53503;SDS011;39387;50.998;22.340;2022-12-07T14:56:43;11.45;;;5.15;;
53503;SDS011;39387;50.998;22.340;2022-12-07T14:59:13;9.95;;;5.55;;
53503;SDS011;39387;50.998;22.340;2022-12-07T15:01:40;11.35;;;5.22;;
53503;SDS011;39387;50.998;22.340;2022-12-07T15:04:07;12.00;;;6.00;;
53503;SDS011;39387;50.998;22.340;2022-12-07T15:06:35;7.70;;;4.25;;
53503;SDS011;39387;50.998;22.340;2022-12-07T15:09:03;7.93;;;4.65;;
53503;SDS011;39387;50.998;22.340;2022-12-07T15:11:30;7.93;;;4.80;;
53503;SDS011;39387;50.998;22.340;2022-12-07T15:13:57;9.35;;;5.03;;
53503;SDS011;39387;50.998;22.340;2022-12-07T15:16:39;7.05;;;4.50;;
53503;SDS011;39387;50.998;22.340;2022-12-07T15:19:12;11.10;;;5.60;;
53503;SDS011;39387;50.998;22.340;2022-12-07T15:21:43;7.97;;;4.50;;
53503;SDS011;39387;50.998;22.340;2022-12-07T15:24:11;11.95;;;5.22;;